createdAt,value
2023-04-15T00:01:10.363Z,100992.91
2023-04-15T00:03:37.119Z,100998.38
2023-04-15T00:06:03.845Z,100998.38
2023-04-15T00:08:30.846Z,100994.59
2023-04-15T00:10:59.364Z,101002.00
2023-04-15T00:13:25.915Z,101002.59
2023-04-15T00:15:52.640Z,100999.06
2023-04-15T00:18:20.980Z,100991.47
2023-04-15T00:20:48.278Z,101001.91
2023-04-15T00:23:14.671Z,100993.19
2023-04-15T00:25:41.171Z,100997.34
2023-04-15T00:28:10.828Z,100994.13
2023-04-15T00:30:37.323Z,100992.31
2023-04-15T00:33:03.842Z,100997.28
2023-04-15T00:35:32.694Z,101002.75
2023-04-15T00:37:59.781Z,100994.66
2023-04-15T00:40:28.490Z,100996.38
2023-04-15T00:42:55.114Z,100989.28
2023-04-15T00:45:21.768Z,100996.16
2023-04-15T00:47:48.363Z,100999.81
2023-04-15T00:50:14.941Z,100997.38
2023-04-15T00:52:41.819Z,101009.09
2023-04-15T00:55:09.446Z,101007.06
2023-04-15T00:57:36.925Z,101004.19
2023-04-15T01:00:05.562Z,101002.03
2023-04-15T01:02:32.876Z,100999.63
2023-04-15T01:05:01.350Z,101007.31
2023-04-15T01:07:27.846Z,101000.81
2023-04-15T01:09:54.419Z,101009.63
2023-04-15T01:12:21.115Z,101004.25
2023-04-15T01:14:47.988Z,101005.97
2023-04-15T01:17:14.560Z,100997.56
2023-04-15T01:19:41.431Z,101002.81
2023-04-15T01:22:08.046Z,100999.19
2023-04-15T01:24:35.840Z,101003.09
2023-04-15T01:27:02.479Z,101000.38
2023-04-15T01:29:29.384Z,101000.66
2023-04-15T01:31:56.685Z,100998.25
2023-04-15T01:34:25.918Z,101004.81
2023-04-15T01:36:53.917Z,101004.81
2023-04-15T01:39:21.540Z,101009.25
2023-04-15T01:41:48.554Z,100998.31
2023-04-15T01:44:16.383Z,101003.56
2023-04-15T01:46:42.897Z,101000.63
2023-04-15T01:49:09.347Z,101007.50
2023-04-15T01:51:35.895Z,101007.31
2023-04-15T01:54:02.513Z,101003.25
2023-04-15T01:56:29.844Z,101005.16
2023-04-15T01:58:56.913Z,101001.72
2023-04-15T02:01:23.542Z,101004.72
2023-04-15T02:03:52.267Z,101008.06
2023-04-15T02:06:21.609Z,101008.34
2023-04-15T02:08:48.114Z,101009.47
2023-04-15T02:11:14.611Z,101007.03
2023-04-15T02:13:41.682Z,101009.53
2023-04-15T02:16:19.040Z,101009.91
2023-04-15T02:18:47.035Z,101014.34
2023-04-15T02:21:15.009Z,101017.66
2023-04-15T02:23:41.539Z,101024.59
2023-04-15T02:26:08.244Z,101016.72
2023-04-15T02:28:34.907Z,101024.38
2023-04-15T02:31:05.552Z,101031.50
2023-04-15T02:33:32.497Z,101033.94
2023-04-15T02:36:00.560Z,101035.34
2023-04-15T02:38:27.520Z,101040.03
2023-04-15T02:40:53.960Z,101043.06
2023-04-15T02:43:20.526Z,101046.88
2023-04-15T02:45:47.319Z,101045.88
2023-04-15T02:48:14.101Z,101040.44
2023-04-15T02:50:41.041Z,101050.81
2023-04-15T02:53:09.570Z,101049.25
2023-04-15T02:55:36.312Z,101051.16
2023-04-15T02:58:02.814Z,101051.47
2023-04-15T03:00:29.186Z,101057.19
2023-04-15T03:03:02.388Z,101052.91
2023-04-15T03:05:29.300Z,101049.44
2023-04-15T03:07:56.464Z,101057.09
2023-04-15T03:10:23.061Z,101057.16
2023-04-15T03:12:49.630Z,101061.56
2023-04-15T03:15:18.776Z,101067.03
2023-04-15T03:17:49.512Z,101059.94
2023-04-15T03:20:16.870Z,101069.81
2023-04-15T03:22:43.493Z,101070.38
2023-04-15T03:25:10.179Z,101076.09
2023-04-15T03:27:38.450Z,101067.94
2023-04-15T03:30:06.640Z,101069.34
2023-04-15T03:32:35.651Z,101074.25
2023-04-15T03:35:02.422Z,101073.72
2023-04-15T03:37:28.995Z,101070.78
2023-04-15T03:39:55.590Z,101078.94
2023-04-15T03:42:22.231Z,101074.06
2023-04-15T03:44:48.745Z,101075.41
2023-04-15T03:47:15.580Z,101080.66
2023-04-15T03:49:42.048Z,101093.22
2023-04-15T03:52:08.511Z,101092.69
2023-04-15T03:54:34.973Z,101095.16
2023-04-15T03:57:01.701Z,101102.84
2023-04-15T03:59:28.159Z,101103.19
2023-04-15T04:01:54.659Z,101103.47
2023-04-15T04:04:21.321Z,101101.31
2023-04-15T04:06:47.864Z,101105.69
2023-04-15T04:09:14.286Z,101110.66
2023-04-15T04:11:40.952Z,101116.94
2023-04-15T04:14:07.396Z,101126.47
2023-04-15T04:16:33.876Z,101125.94
2023-04-15T04:19:00.775Z,101125.94
2023-04-15T04:21:28.121Z,101119.16
2023-04-15T04:23:54.780Z,101124.63
2023-04-15T04:26:22.208Z,101127.38
2023-04-15T04:28:48.634Z,101138.00
2023-04-15T04:31:15.150Z,101133.72
2023-04-15T04:33:41.703Z,101131.84
2023-04-15T04:36:08.180Z,101143.00
2023-04-15T04:38:34.691Z,101152.28
2023-04-15T04:41:01.268Z,101149.03
2023-04-15T04:43:27.877Z,101159.91
2023-04-15T04:45:54.393Z,101164.53
2023-04-15T04:48:21.281Z,101165.09
2023-04-15T04:50:48.051Z,101171.63
2023-04-15T04:53:15.049Z,101177.34
2023-04-15T04:55:41.539Z,101179.59
2023-04-15T04:58:08.098Z,101181.78
2023-04-15T05:00:34.696Z,101184.75
2023-04-15T05:03:01.264Z,101191.56
2023-04-15T05:05:27.917Z,101181.50
2023-04-15T05:07:54.416Z,101193.19
2023-04-15T05:10:21.045Z,101197.53
2023-04-15T05:12:47.496Z,101205.13
2023-04-15T05:15:13.951Z,101196.44
2023-04-15T05:17:40.454Z,101212.75
2023-04-15T05:20:07.619Z,101214.38
2023-04-15T05:22:34.215Z,101213.28
2023-04-15T05:25:01.571Z,101212.69
2023-04-15T05:27:28.055Z,101218.66
2023-04-15T05:29:54.520Z,101221.91
2023-04-15T05:32:21.316Z,101222.19
2023-04-15T05:34:47.814Z,101230.31
2023-04-15T05:37:14.504Z,101230.00
2023-04-15T05:39:40.980Z,101237.34
2023-04-15T05:42:08.132Z,101243.03
2023-04-15T05:44:34.653Z,101247.31
2023-04-15T05:47:01.517Z,101253.19
2023-04-15T05:49:28.674Z,101247.47
2023-04-15T05:51:55.346Z,101254.00
2023-04-15T05:54:24.277Z,101266.22
2023-04-15T05:56:51.003Z,101266.50
2023-04-15T05:59:17.435Z,101266.78
2023-04-15T06:01:45.279Z,101273.84
2023-04-15T06:04:14.754Z,101272.47
2023-04-15T06:06:41.950Z,101274.91
2023-04-15T06:09:08.405Z,101284.13
2023-04-15T06:11:34.959Z,101287.34
2023-04-15T06:14:04.498Z,101287.28
2023-04-15T06:16:31.247Z,101300.31
2023-04-15T06:18:57.752Z,101289.38
2023-04-15T06:21:24.316Z,101302.38
2023-04-15T06:23:50.947Z,101303.81
2023-04-15T06:26:17.412Z,101307.84
2023-04-15T06:28:43.872Z,101312.44
2023-04-15T06:31:10.612Z,101316.97
2023-04-15T06:33:37.190Z,101311.00
2023-04-15T06:36:03.788Z,101314.47
2023-04-15T06:38:30.535Z,101311.81
2023-04-15T06:40:57.013Z,101311.91
2023-04-15T06:43:25.774Z,101327.63
2023-04-15T06:45:53.800Z,101324.72
2023-04-15T06:48:20.320Z,101331.00
2023-04-15T06:50:46.847Z,101340.03
2023-04-15T06:53:14.621Z,101352.44
2023-04-15T06:55:43.442Z,101343.44
2023-04-15T06:58:09.919Z,101353.72
2023-04-15T07:00:38.935Z,101350.84
2023-04-15T07:03:05.560Z,101358.72
2023-04-15T07:05:32.354Z,101361.06
2023-04-15T07:07:58.839Z,101365.41
2023-04-15T07:10:25.745Z,101371.34
2023-04-15T07:12:52.551Z,101375.03
2023-04-15T07:15:19.077Z,101374.28
2023-04-15T07:17:45.670Z,101379.50
2023-04-15T07:20:13.946Z,101386.69
2023-04-15T07:22:40.728Z,101395.84
2023-04-15T07:25:07.848Z,101393.16
2023-04-15T07:27:37.671Z,101399.69
2023-04-15T07:30:04.433Z,101396.16
2023-04-15T07:32:31.099Z,101398.13
2023-04-15T07:34:57.806Z,101407.78
2023-04-15T07:37:24.430Z,101410.31
2023-04-15T07:39:50.875Z,101399.84
2023-04-15T07:42:17.394Z,101402.78
2023-04-15T07:44:43.924Z,101393.41
2023-04-15T07:47:36.853Z,101411.09
2023-04-15T07:50:06.873Z,101414.78
2023-04-15T07:52:40.966Z,101410.34
2023-04-15T07:55:14.892Z,101409.94
2023-04-15T07:57:49.747Z,101410.75
2023-04-15T08:00:16.713Z,101420.09
2023-04-15T08:02:43.626Z,101417.84
2023-04-15T08:05:10.888Z,101424.16
2023-04-15T08:07:38.392Z,101427.22
2023-04-15T08:10:05.644Z,101430.81
2023-04-15T08:12:32.202Z,101424.75
2023-04-15T08:14:58.838Z,101434.78
2023-04-15T08:17:27.436Z,101437.03
2023-04-15T08:19:58.679Z,101437.91
2023-04-15T08:22:25.397Z,101447.81
2023-04-15T08:24:52.999Z,101446.44
2023-04-15T08:27:19.876Z,101445.09
2023-04-15T08:29:50.713Z,101444.69
2023-04-15T08:32:17.197Z,101440.38
2023-04-15T08:34:43.654Z,101453.75
2023-04-15T08:37:11.459Z,101459.19
2023-04-15T08:39:40.593Z,101451.13
2023-04-15T08:42:16.388Z,101463.44
2023-04-15T08:44:44.655Z,101463.88
2023-04-15T08:47:14.652Z,101478.47
2023-04-15T08:49:43.130Z,101486.56
2023-04-15T08:52:10.196Z,101485.28
2023-04-15T08:54:37.453Z,101484.13
2023-04-15T08:57:04.228Z,101493.91
2023-04-15T08:59:30.930Z,101501.69
2023-04-15T09:02:01.134Z,101502.63
2023-04-15T09:04:28.222Z,101501.41
2023-04-15T09:06:54.742Z,101502.59
2023-04-15T09:09:21.778Z,101515.59
2023-04-15T09:11:49.916Z,101515.03
2023-04-15T09:14:18.291Z,101517.59
2023-04-15T09:17:01.884Z,101518.22
2023-04-15T09:19:29.130Z,101524.72
2023-04-15T09:21:58.872Z,101526.66
2023-04-15T09:24:33.609Z,101523.59
2023-04-15T09:27:00.540Z,101541.25
2023-04-15T09:29:27.047Z,101539.50
2023-04-15T09:31:53.707Z,101549.78
2023-04-15T09:34:20.455Z,101550.94
2023-04-15T09:36:56.892Z,101550.38
2023-04-15T09:39:23.484Z,101544.78
2023-04-15T09:42:10.247Z,101547.22
2023-04-15T09:44:37.582Z,101552.47
2023-04-15T09:47:04.166Z,101553.59
2023-04-15T09:49:30.648Z,101552.81
2023-04-15T09:52:06.023Z,101552.81
2023-04-15T09:54:35.047Z,101557.75
2023-04-15T09:57:08.890Z,101562.59
2023-04-15T09:59:35.690Z,101555.44
2023-04-15T10:02:05.492Z,101557.38
2023-04-15T10:04:35.093Z,101566.56
2023-04-15T10:07:05.030Z,101571.97
2023-04-15T10:09:33.580Z,101567.88
2023-04-15T10:12:01.179Z,101570.84
2023-04-15T10:14:34.196Z,101573.94
2023-04-15T10:17:02.535Z,101585.56
2023-04-15T10:19:41.768Z,101582.22
2023-04-15T10:22:08.512Z,101577.16
2023-04-15T10:24:35.441Z,101587.69
2023-04-15T10:27:13.975Z,101575.50
2023-04-15T10:29:51.077Z,101572.22
2023-04-15T10:32:22.233Z,101566.44
2023-04-15T10:35:25.910Z,101573.69
2023-04-15T10:37:45.166Z,101575.44
2023-04-15T10:40:38.895Z,101576.22
2023-04-15T10:43:05.722Z,101580.91
2023-04-15T10:46:03.742Z,101586.72
2023-04-15T10:48:38.886Z,101603.13
2023-04-15T10:51:05.632Z,101606.03
2023-04-15T10:53:34.637Z,101607.78
2023-04-15T10:56:01.261Z,101596.25
2023-04-15T10:59:05.325Z,101596.97
2023-04-15T11:02:00.333Z,101613.78
2023-04-15T11:04:57.686Z,101612.44
2023-04-15T11:07:49.835Z,101619.44
2023-04-15T11:10:37.333Z,101612.72
2023-04-15T11:13:54.750Z,101624.00
2023-04-15T11:16:43.018Z,101613.34
2023-04-15T11:19:09.692Z,101616.22
2023-04-15T11:21:39.221Z,101619.50
2023-04-15T11:24:14.626Z,101629.78
2023-04-15T11:26:45.991Z,101629.19
2023-04-15T11:29:18.571Z,101632.06
2023-04-15T11:31:49.578Z,101618.53
2023-04-15T11:37:16.315Z,101621.28
2023-04-15T11:39:46.698Z,101621.06
2023-04-15T11:42:18.486Z,101614.41
2023-04-15T11:44:45.305Z,101621.75
2023-04-15T11:47:24.676Z,101626.66
2023-04-15T11:49:51.610Z,101627.78
2023-04-15T11:52:19.078Z,101629.34
2023-04-15T11:58:10.920Z,101642.53
2023-04-15T12:03:29.082Z,101657.69
2023-04-15T12:06:21.607Z,101649.06
2023-04-15T12:09:07.899Z,101651.09
2023-04-15T12:11:36.170Z,101668.28
2023-04-15T12:14:06.792Z,101661.16
2023-04-15T12:17:04.910Z,101670.69
2023-04-15T12:19:36.965Z,101668.63
2023-04-15T12:22:10.054Z,101676.00
2023-04-15T12:24:37.762Z,101675.31
2023-04-15T12:27:09.946Z,101687.44
2023-04-15T12:29:39.475Z,101679.00
2023-04-15T12:32:13.701Z,101687.66
2023-04-15T12:34:50.411Z,101693.41
2023-04-15T12:37:17.733Z,101684.88
2023-04-15T12:39:46.237Z,101691.56
2023-04-15T12:42:12.955Z,101692.88
2023-04-15T12:44:40.243Z,101702.00
2023-04-15T12:47:50.549Z,101706.09
2023-04-15T12:50:18.675Z,101717.97
2023-04-15T12:56:07.682Z,101728.44
2023-04-15T12:58:40.253Z,101722.38
2023-04-15T13:01:06.831Z,101714.69
2023-04-15T13:03:33.639Z,101725.31
2023-04-15T13:06:02.198Z,101735.97
2023-04-15T13:08:28.848Z,101732.31
2023-04-15T13:10:55.507Z,101729.66
2023-04-15T13:13:22.228Z,101746.72
2023-04-15T13:15:49.998Z,101748.91
2023-04-15T13:18:16.765Z,101742.38
2023-04-15T13:20:43.721Z,101746.16
2023-04-15T13:23:10.719Z,101753.19
2023-04-15T13:25:37.189Z,101754.72
2023-04-15T13:28:03.824Z,101769.56
2023-04-15T13:30:31.238Z,101779.63
2023-04-15T13:32:57.985Z,101779.16
2023-04-15T13:35:34.080Z,101769.41
2023-04-15T13:38:00.742Z,101782.41
2023-04-15T13:40:35.562Z,101778.00
2023-04-15T13:43:05.492Z,101795.38
2023-04-15T13:45:32.021Z,101793.41
2023-04-15T13:48:05.917Z,101791.63
2023-04-15T13:50:32.639Z,101808.03
2023-04-15T13:52:59.267Z,101808.19
2023-04-15T13:55:28.693Z,101808.06
2023-04-15T13:57:56.917Z,101804.16
2023-04-15T14:00:23.483Z,101811.63
2023-04-15T14:02:51.880Z,101808.69
2023-04-15T14:05:18.463Z,101802.22
2023-04-15T14:07:45.359Z,101806.09
2023-04-15T14:10:14.547Z,101803.16
2023-04-15T14:12:50.147Z,101817.63
2023-04-15T14:15:18.765Z,101816.28
2023-04-15T14:17:45.541Z,101826.34
2023-04-15T14:20:17.192Z,101830.53
2023-04-15T14:22:44.032Z,101826.47
2023-04-15T14:25:30.533Z,101830.34
2023-04-15T14:28:00.949Z,101844.06
2023-04-15T14:33:37.947Z,101861.59
2023-04-15T14:36:13.833Z,101860.38
2023-04-15T14:38:41.063Z,101857.06
2023-04-15T14:41:08.560Z,101865.13
2023-04-15T14:43:58.546Z,101869.56
2023-04-15T14:46:29.102Z,101862.06
2023-04-15T14:49:21.798Z,101870.88
2023-04-15T14:52:37.351Z,101875.91
2023-04-15T14:55:10.536Z,101875.84
2023-04-15T14:58:15.430Z,101886.03
2023-04-15T15:01:40.436Z,101887.22
2023-04-15T15:04:42.775Z,101898.97
2023-04-15T15:07:47.484Z,101895.34
2023-04-15T15:10:14.257Z,101898.41
2023-04-15T15:12:40.686Z,101908.53
2023-04-15T15:15:19.461Z,101915.47
2023-04-15T15:17:54.505Z,101921.78
2023-04-15T15:20:21.534Z,101909.41
2023-04-15T15:22:48.043Z,101916.38
2023-04-15T15:25:14.565Z,101915.31
2023-04-15T15:27:41.243Z,101923.25
2023-04-15T15:30:08.297Z,101924.25
2023-04-15T15:32:35.038Z,101919.66
2023-04-15T15:35:01.695Z,101939.84
2023-04-15T15:37:30.368Z,101931.09
2023-04-15T15:39:57.004Z,101931.09
2023-04-15T15:42:23.557Z,101941.28
2023-04-15T15:44:53.156Z,101937.19
2023-04-15T15:47:21.067Z,101949.09
2023-04-15T15:49:47.788Z,101942.16
2023-04-15T15:52:14.336Z,101945.31
2023-04-15T15:54:41.229Z,101948.06
2023-04-15T15:57:07.989Z,101945.31
2023-04-15T15:59:34.493Z,101946.13
2023-04-15T16:02:02.645Z,101942.78
2023-04-15T16:04:29.548Z,101960.72
2023-04-15T16:06:56.212Z,101969.25
2023-04-15T16:09:22.639Z,101970.88
2023-04-15T16:11:51.243Z,101984.31
2023-04-15T16:14:21.226Z,101980.44
2023-04-15T16:16:47.883Z,101986.38
2023-04-15T16:19:14.390Z,101985.06
2023-04-15T16:21:40.866Z,101980.41
2023-04-15T16:24:07.362Z,101983.31
2023-04-15T16:26:33.844Z,101983.59
2023-04-15T16:29:01.856Z,101991.38
2023-04-15T16:31:31.414Z,101998.38
2023-04-15T16:33:58.275Z,102002.75
2023-04-15T16:36:25.945Z,102007.84
2023-04-15T16:38:53.273Z,102015.25
2023-04-15T16:41:21.455Z,102018.22
2023-04-15T16:43:47.942Z,102009.75
2023-04-15T16:46:29.861Z,102011.84
2023-04-15T16:48:56.966Z,102015.41
2023-04-15T16:51:24.070Z,102013.03
2023-04-15T16:53:53.646Z,102016.97
2023-04-15T16:56:21.513Z,102018.09
2023-04-15T16:59:13.822Z,102017.56
2023-04-15T17:01:42.637Z,102025.06
2023-04-15T17:04:09.302Z,102028.38
2023-04-15T17:06:36.200Z,102025.41
2023-04-15T17:09:02.757Z,102030.38
2023-04-15T17:11:29.419Z,102035.84
2023-04-15T17:13:55.890Z,102036.06
2023-04-15T17:16:25.468Z,102039.63
2023-04-15T17:18:52.029Z,102042.44
2023-04-15T17:21:19.254Z,102040.81
2023-04-15T17:23:48.182Z,102045.47
2023-04-15T17:26:14.848Z,102044.66
2023-04-15T17:28:56.589Z,102053.16
2023-04-15T17:31:24.844Z,102061.63
2023-04-15T17:34:07.804Z,102055.72
2023-04-15T17:36:37.296Z,102056.94
2023-04-15T17:39:04.569Z,102051.41
2023-04-15T17:41:31.267Z,102050.34
2023-04-15T17:43:57.839Z,102059.97
2023-04-15T17:46:24.329Z,102066.19
2023-04-15T17:48:51.996Z,102061.91
2023-04-15T17:51:18.707Z,102076.19
2023-04-15T17:53:45.276Z,102078.38
2023-04-15T17:56:14.099Z,102079.59
2023-04-15T17:58:40.588Z,102080.44
2023-04-15T18:01:07.263Z,102086.19
2023-04-15T18:03:33.994Z,102078.63
2023-04-15T18:06:01.306Z,102084.59
2023-04-15T18:08:28.977Z,102089.81
2023-04-15T18:10:55.483Z,102101.63
2023-04-15T18:13:24.371Z,102090.72
2023-04-15T18:15:51.350Z,102096.75
2023-04-15T18:18:18.001Z,102101.69
2023-04-15T18:20:44.561Z,102102.25
2023-04-15T18:23:11.708Z,102109.66
2023-04-15T18:25:38.332Z,102104.44
2023-04-15T18:28:08.520Z,102103.91
2023-04-15T18:30:35.030Z,102110.53
2023-04-15T18:33:02.797Z,102119.06
2023-04-15T18:35:34.868Z,102115.22
2023-04-15T18:38:21.725Z,102132.50
2023-04-15T18:42:18.821Z,102124.56
2023-04-15T18:44:59.007Z,102128.94
2023-04-15T18:52:35.869Z,102128.22
2023-04-15T18:55:03.434Z,102133.72
2023-04-15T18:57:35.736Z,102137.81
2023-04-15T19:00:03.553Z,102140.34
2023-04-15T19:02:30.104Z,102140.94
2023-04-15T19:04:56.695Z,102147.50
2023-04-15T19:07:23.280Z,102159.00
2023-04-15T19:09:49.881Z,102164.47
2023-04-15T19:12:16.468Z,102160.66
2023-04-15T19:14:43.013Z,102152.16
2023-04-15T19:17:09.493Z,102164.47
2023-04-15T19:19:35.962Z,102163.94
2023-04-15T19:22:03.500Z,102160.38
2023-04-15T19:24:33.411Z,102160.66
2023-04-15T19:27:00.188Z,102157.94
2023-04-15T19:29:28.531Z,102162.88
2023-04-15T19:31:55.221Z,102169.44
2023-04-15T19:34:21.839Z,102175.75
2023-04-15T19:36:48.511Z,102176.56
2023-04-15T19:39:14.977Z,102177.13
2023-04-15T19:41:41.499Z,102167.28
2023-04-15T19:44:08.051Z,102179.31
2023-04-15T19:46:34.735Z,102185.88
2023-04-15T19:49:01.333Z,102180.97
2023-04-15T19:51:28.485Z,102178.50
2023-04-15T19:53:56.692Z,102184.78
2023-04-15T19:56:26.320Z,102186.97
2023-04-15T19:58:54.728Z,102197.91
2023-04-15T20:01:22.351Z,102176.88
2023-04-15T20:03:49.343Z,102196.28
2023-04-15T20:06:15.907Z,102191.38
2023-04-15T20:08:42.437Z,102197.91
2023-04-15T20:11:09.567Z,102205.34
2023-04-15T20:13:37.148Z,102193.31
2023-04-15T20:16:05.905Z,102194.69
2023-04-15T20:18:32.409Z,102186.47
2023-04-15T20:20:59.164Z,102190.03
2023-04-15T20:23:26.360Z,102191.94
2023-04-15T20:25:52.940Z,102186.75
2023-04-15T20:28:19.508Z,102187.59
2023-04-15T20:30:47.076Z,102202.34
2023-04-15T20:33:14.191Z,102201.25
2023-04-15T20:35:41.007Z,102205.34
2023-04-15T20:38:07.505Z,102211.63
2023-04-15T20:40:33.978Z,102197.97
2023-04-15T20:43:00.607Z,102198.53
2023-04-15T20:45:27.099Z,102200.16
2023-04-15T20:47:55.171Z,102199.88
2023-04-15T20:50:21.933Z,102206.72
2023-04-15T20:52:52.737Z,102203.72
2023-04-15T20:55:20.962Z,102199.88
2023-04-15T20:57:48.973Z,102200.41
2023-04-15T21:00:17.044Z,102210.25
2023-04-15T21:02:44.695Z,102214.34
2023-04-15T21:05:11.532Z,102219.25
2023-04-15T21:07:37.952Z,102219.25
2023-04-15T21:10:04.759Z,102221.44
2023-04-15T21:12:31.277Z,102219.81
2023-04-15T21:14:57.830Z,102216.00
2023-04-15T21:17:25.089Z,102223.66
2023-04-15T21:19:51.608Z,102218.19
2023-04-15T21:22:18.088Z,102221.47
2023-04-15T21:24:44.557Z,102226.09
2023-04-15T21:27:11.048Z,102228.56
2023-04-15T21:29:40.224Z,102222.00
2023-04-15T21:32:06.800Z,102231.84
2023-04-15T21:34:33.268Z,102229.38
2023-04-15T21:36:59.857Z,102232.13
2023-04-15T21:39:26.426Z,102242.00
2023-04-15T21:41:53.057Z,102236.81
2023-04-15T21:44:19.570Z,102225.88
2023-04-15T21:46:46.429Z,102230.53
2023-04-15T21:49:13.976Z,102228.06
2023-04-15T21:51:40.632Z,102231.59
2023-04-15T21:54:07.167Z,102234.06
2023-04-15T21:56:33.699Z,102240.34
2023-04-15T21:59:00.113Z,102240.34
2023-04-15T22:01:28.177Z,102240.34
2023-04-15T22:03:55.061Z,102250.72
2023-04-15T22:06:21.954Z,102252.66
2023-04-15T22:08:56.845Z,102252.38
2023-04-15T22:11:36.494Z,102256.19
2023-04-15T22:14:03.243Z,102253.19
2023-04-15T22:16:29.761Z,102256.75
2023-04-15T22:19:02.202Z,102258.94
2023-04-15T22:21:28.796Z,102254.84
2023-04-15T22:24:38.114Z,102256.44
2023-04-15T22:26:41.859Z,102260.00
2023-04-15T22:29:08.375Z,102255.66
2023-04-15T22:31:34.893Z,102248.00
2023-04-15T22:34:01.512Z,102258.09
2023-04-15T22:36:28.574Z,102267.94
2023-04-15T22:38:55.095Z,102268.22
2023-04-15T22:41:21.508Z,102266.56
2023-04-15T22:43:47.993Z,102271.22
2023-04-15T22:46:14.638Z,102273.69
2023-04-15T22:48:42.515Z,102274.50
2023-04-15T22:51:08.984Z,102262.75
2023-04-15T22:53:35.543Z,102270.13
2023-04-15T22:56:02.247Z,102270.94
2023-04-15T22:58:32.077Z,102272.59
2023-04-15T23:01:01.285Z,102275.59
2023-04-15T23:03:29.280Z,102282.69
2023-04-15T23:05:55.989Z,102284.59
2023-04-15T23:08:23.860Z,102285.44
2023-04-15T23:10:50.904Z,102279.97
2023-04-15T23:13:17.318Z,102287.06
2023-04-15T23:15:43.964Z,102285.44
2023-04-15T23:18:10.710Z,102292.25
2023-04-15T23:20:37.315Z,102293.63
2023-04-15T23:23:03.995Z,102296.34
2023-04-15T23:25:30.517Z,102294.44
2023-04-15T23:27:56.920Z,102298.53
2023-04-15T23:30:23.412Z,102303.44
2023-04-15T23:32:49.880Z,102301.81
2023-04-15T23:35:16.670Z,102299.09
2023-04-15T23:37:43.151Z,102306.19
2023-04-15T23:40:10.308Z,102305.63
2023-04-15T23:42:36.757Z,102294.72
2023-04-15T23:45:03.461Z,102304.81
2023-04-15T23:47:33.872Z,102305.09
2023-04-15T23:50:01.463Z,102303.44
2023-04-15T23:52:27.930Z,102308.91
2023-04-15T23:54:54.459Z,102308.09
2023-04-15T23:57:20.975Z,102318.19
2023-04-15T23:59:47.430Z,102312.72
